메인 페이지
METAR-TAF:

METAR-TAF

공항 :

만달레이 국제공항

만달레이, 미얀마

위도: 21-59N, 경도: 096-06E, 고도: 74m

현재 날씨관측

예보는 54분 전, 23:30시(UTC)에 발표되었습니다.
온도 25°C
습도 89%
기압 1011 hPa
시정: 6000m
고도 2000ft 상공 구름 보통

METAR: VYMD 212330Z CALM 6000 SCT020 25/23 Q1011

시각: 06:54 (00:24 UTC)

예보

예보는 1 시간 24분 전, 23:00시(UTC)에 발표되었습니다.
예보 대상 시간: 22일 00시부터 22일 24시까지 (UTC)
북북서6kt
시정: 7000m
고도 2000ft 상공 구름 많음
고도 2500ft 상공 구름 조금, 적란운.
고도 12000ft 상공 구름 조금
일시적
22일 00시부터 22일 06시까지 (UTC)
북북동7kt
시정: 7000m
고도 2000ft 상공 구름 많음
고도 2500ft 상공 구름 조금, 적란운.
고도 12000ft 상공 구름 보통

TAF: VYMD 212300Z 2200/2224 34006KT 7000 BKN020 FEW025CB FEW120 TEMPO 2200/2206 03007KT 7000 BKN020 FEW025CB SCT120

4,000개 이상의 공항 관측 자료 및 예보 (METAR 및 TAF 보고).

지도상에서 검색 가능한 기상관측소가 노란 점과 빨간 점으로 표시되어 있습니다.

기상관측소 명을 보려면 표시 위로 마우스를 이동하세요.

날씨 관측과 예보를 보려면 클릭하세요.

지도 변경 : 확대하려면 엑스 표시가 있는 녹색 버튼, 축소하려면 빼기 표시가 있는 녹색 버튼, 다음 페이지의 지도를 보려면 녹색 화살표를 클릭하세요.


METAR-TAF: